sensor_id;sensor_type;location;lat;lon;timestamp;temperature;humidity
21518;DHT22;61765;45.794;24.150;2023-04-03T00:02:48;14.50;88.80
21518;DHT22;61765;45.794;24.150;2023-04-03T00:10:53;14.60;88.20
21518;DHT22;61765;45.794;24.150;2023-04-03T00:19:01;14.70;88.40
21518;DHT22;61765;45.794;24.150;2023-04-03T00:27:07;14.90;87.70
21518;DHT22;61765;45.794;24.150;2023-04-03T00:35:17;15.00;87.40
21518;DHT22;61765;45.794;24.150;2023-04-03T00:43:24;14.70;88.20
21518;DHT22;61765;45.794;24.150;2023-04-03T00:51:32;14.70;88.00
21518;DHT22;61765;45.794;24.150;2023-04-03T00:59:40;14.80;88.40
21518;DHT22;61765;45.794;24.150;2023-04-03T01:07:50;14.70;87.70
21518;DHT22;61765;45.794;24.150;2023-04-03T01:15:56;14.80;87.60
21518;DHT22;61765;45.794;24.150;2023-04-03T01:24:18;15.00;88.00
21518;DHT22;61765;45.794;24.150;2023-04-03T01:32:29;14.80;88.90
21518;DHT22;61765;45.794;24.150;2023-04-03T01:40:51;14.90;88.40
21518;DHT22;61765;45.794;24.150;2023-04-03T01:50:00;14.50;88.60
21518;DHT22;61765;45.794;24.150;2023-04-03T01:58:16;14.20;89.80
21518;DHT22;61765;45.794;24.150;2023-04-03T02:06:26;14.50;89.20
21518;DHT22;61765;45.794;24.150;2023-04-03T02:14:32;14.70;89.20
21518;DHT22;61765;45.794;24.150;2023-04-03T02:22:40;14.70;89.40
21518;DHT22;61765;45.794;24.150;2023-04-03T02:30:46;14.80;88.80
21518;DHT22;61765;45.794;24.150;2023-04-03T02:38:55;14.70;88.80
21518;DHT22;61765;45.794;24.150;2023-04-03T02:47:00;14.80;88.90
21518;DHT22;61765;45.794;24.150;2023-04-03T02:55:14;15.00;88.50
21518;DHT22;61765;45.794;24.150;2023-04-03T03:03:22;14.80;89.20
21518;DHT22;61765;45.794;24.150;2023-04-03T03:11:31;14.80;89.60
21518;DHT22;61765;45.794;24.150;2023-04-03T03:19:37;14.70;89.40
21518;DHT22;61765;45.794;24.150;2023-04-03T03:27:45;14.80;89.20
21518;DHT22;61765;45.794;24.150;2023-04-03T03:35:51;14.90;88.90
21518;DHT22;61765;45.794;24.150;2023-04-03T03:44:00;14.90;88.80
21518;DHT22;61765;45.794;24.150;2023-04-03T03:52:07;15.10;88.80
21518;DHT22;61765;45.794;24.150;2023-04-03T04:00:16;15.10;88.70
21518;DHT22;61765;45.794;24.150;2023-04-03T04:08:27;15.00;88.80
21518;DHT22;61765;45.794;24.150;2023-04-03T04:16:36;15.00;88.70
21518;DHT22;61765;45.794;24.150;2023-04-03T04:24:46;15.00;89.10
21518;DHT22;61765;45.794;24.150;2023-04-03T04:32:54;14.90;89.10
21518;DHT22;61765;45.794;24.150;2023-04-03T04:41:01;15.10;88.90
21518;DHT22;61765;45.794;24.150;2023-04-03T04:49:09;15.20;88.50
21518;DHT22;61765;45.794;24.150;2023-04-03T04:57:15;15.00;88.50
21518;DHT22;61765;45.794;24.150;2023-04-03T05:05:24;15.20;88.70
21518;DHT22;61765;45.794;24.150;2023-04-03T05:13:30;15.10;89.00
21518;DHT22;61765;45.794;24.150;2023-04-03T05:21:39;15.20;88.80
21518;DHT22;61765;45.794;24.150;2023-04-03T05:29:48;15.30;88.60
21518;DHT22;61765;45.794;24.150;2023-04-03T05:37:58;15.50;88.60
21518;DHT22;61765;45.794;24.150;2023-04-03T05:46:10;15.50;88.20
21518;DHT22;61765;45.794;24.150;2023-04-03T05:54:24;15.70;88.20
21518;DHT22;61765;45.794;24.150;2023-04-03T06:02:45;16.10;86.90
21518;DHT22;61765;45.794;24.150;2023-04-03T06:10:58;16.10;86.30
21518;DHT22;61765;45.794;24.150;2023-04-03T06:19:04;16.10;84.60
21518;DHT22;61765;45.794;24.150;2023-04-03T06:27:16;16.20;84.10
21518;DHT22;61765;45.794;24.150;2023-04-03T06:35:21;16.30;83.10
21518;DHT22;61765;45.794;24.150;2023-04-03T06:43:30;16.40;82.70
21518;DHT22;61765;45.794;24.150;2023-04-03T06:51:36;16.50;82.40
21518;DHT22;61765;45.794;24.150;2023-04-03T06:59:44;17.00;81.40
21518;DHT22;61765;45.794;24.150;2023-04-03T07:07:50;17.40;79.00
21518;DHT22;61765;45.794;24.150;2023-04-03T07:15:58;17.60;79.10
21518;DHT22;61765;45.794;24.150;2023-04-03T07:24:03;18.40;77.50
21518;DHT22;61765;45.794;24.150;2023-04-03T07:32:17;19.10;74.50
21518;DHT22;61765;45.794;24.150;2023-04-03T07:40:22;19.50;73.20
21518;DHT22;61765;45.794;24.150;2023-04-03T07:48:30;19.90;72.40
21518;DHT22;61765;45.794;24.150;2023-04-03T07:56:37;20.30;70.50
21518;DHT22;61765;45.794;24.150;2023-04-03T08:04:45;20.60;69.60
21518;DHT22;61765;45.794;24.150;2023-04-03T08:12:51;20.50;67.80
21518;DHT22;61765;45.794;24.150;2023-04-03T08:20:59;20.20;70.10
21518;DHT22;61765;45.794;24.150;2023-04-03T08:29:05;20.00;68.70
21518;DHT22;61765;45.794;24.150;2023-04-03T08:37:13;20.00;70.00
21518;DHT22;61765;45.794;24.150;2023-04-03T08:45:21;20.10;69.30
21518;DHT22;61765;45.794;24.150;2023-04-03T08:53:35;20.00;69.50
21518;DHT22;61765;45.794;24.150;2023-04-03T09:01:45;20.00;70.60
21518;DHT22;61765;45.794;24.150;2023-04-03T09:09:54;20.30;69.60
21518;DHT22;61765;45.794;24.150;2023-04-03T09:18:05;20.70;68.90
21518;DHT22;61765;45.794;24.150;2023-04-03T09:26:17;21.30;67.40
21518;DHT22;61765;45.794;24.150;2023-04-03T09:34:26;21.90;65.70
21518;DHT22;61765;45.794;24.150;2023-04-03T09:42:40;22.30;65.40
21518;DHT22;61765;45.794;24.150;2023-04-03T09:51:01;22.50;63.00
21518;DHT22;61765;45.794;24.150;2023-04-03T09:59:14;22.80;63.20
21518;DHT22;61765;45.794;24.150;2023-04-03T10:07:33;23.20;62.30
21518;DHT22;61765;45.794;24.150;2023-04-03T10:15:44;23.80;64.00
21518;DHT22;61765;45.794;24.150;2023-04-03T10:23:54;24.20;61.40
21518;DHT22;61765;45.794;24.150;2023-04-03T10:32:19;23.60;59.90
21518;DHT22;61765;45.794;24.150;2023-04-03T10:40:33;23.30;61.00
21518;DHT22;61765;45.794;24.150;2023-04-03T10:48:50;27.20;56.50
21518;DHT22;61765;45.794;24.150;2023-04-03T10:57:02;28.60;53.40
21518;DHT22;61765;45.794;24.150;2023-04-03T11:05:21;27.60;53.90
21518;DHT22;61765;45.794;24.150;2023-04-03T11:13:35;27.10;56.50
21518;DHT22;61765;45.794;24.150;2023-04-03T11:21:48;26.80;54.30
21518;DHT22;61765;45.794;24.150;2023-04-03T11:29:58;24.00;58.30
21518;DHT22;61765;45.794;24.150;2023-04-03T11:38:17;22.50;61.60
21518;DHT22;61765;45.794;24.150;2023-04-03T11:46:52;21.50;64.30
21518;DHT22;61765;45.794;24.150;2023-04-03T11:55:02;20.90;66.00
21518;DHT22;61765;45.794;24.150;2023-04-03T12:12:26;19.80;69.00
21518;DHT22;61765;45.794;24.150;2023-04-03T12:20:54;19.30;70.10
21518;DHT22;61765;45.794;24.150;2023-04-03T12:29:14;18.80;70.30
21518;DHT22;61765;45.794;24.150;2023-04-03T12:37:37;19.10;70.50
21518;DHT22;61765;45.794;24.150;2023-04-03T12:45:47;18.80;70.60
21518;DHT22;61765;45.794;24.150;2023-04-03T12:54:00;18.20;72.10
21518;DHT22;61765;45.794;24.150;2023-04-03T13:02:20;18.20;71.40
21518;DHT22;61765;45.794;24.150;2023-04-03T13:10:26;17.90;73.40
21518;DHT22;61765;45.794;24.150;2023-04-03T13:18:35;18.00;73.60
21518;DHT22;61765;45.794;24.150;2023-04-03T13:26:42;18.10;73.20
21518;DHT22;61765;45.794;24.150;2023-04-03T13:34:51;18.30;73.00
21518;DHT22;61765;45.794;24.150;2023-04-03T13:43:02;17.90;73.80
21518;DHT22;61765;45.794;24.150;2023-04-03T13:51:22;17.90;74.40
21518;DHT22;61765;45.794;24.150;2023-04-03T13:59:29;18.00;79.40
21518;DHT22;61765;45.794;24.150;2023-04-03T14:07:38;17.70;80.40
21518;DHT22;61765;45.794;24.150;2023-04-03T14:15:46;17.70;81.80
21518;DHT22;61765;45.794;24.150;2023-04-03T14:23:56;17.50;83.20
21518;DHT22;61765;45.794;24.150;2023-04-03T14:32:02;16.50;85.50
21518;DHT22;61765;45.794;24.150;2023-04-03T14:40:22;15.70;89.60
21518;DHT22;61765;45.794;24.150;2023-04-03T14:48:28;16.70;87.40
21518;DHT22;61765;45.794;24.150;2023-04-03T14:56:38;16.80;87.00
21518;DHT22;61765;45.794;24.150;2023-04-03T15:04:43;17.10;85.80
21518;DHT22;61765;45.794;24.150;2023-04-03T15:12:52;17.10;85.70
21518;DHT22;61765;45.794;24.150;2023-04-03T15:20:58;17.10;84.50
21518;DHT22;61765;45.794;24.150;2023-04-03T15:29:06;17.10;84.40
21518;DHT22;61765;45.794;24.150;2023-04-03T15:37:12;17.20;84.20
21518;DHT22;61765;45.794;24.150;2023-04-03T15:45:21;17.10;83.80
21518;DHT22;61765;45.794;24.150;2023-04-03T15:53:29;17.00;84.00
21518;DHT22;61765;45.794;24.150;2023-04-03T16:01:39;17.00;84.10
21518;DHT22;61765;45.794;24.150;2023-04-03T16:09:44;16.90;83.40
21518;DHT22;61765;45.794;24.150;2023-04-03T16:17:53;16.80;83.40
21518;DHT22;61765;45.794;24.150;2023-04-03T16:26:14;16.80;83.30
21518;DHT22;61765;45.794;24.150;2023-04-03T16:34:20;16.80;83.10
21518;DHT22;61765;45.794;24.150;2023-04-03T16:42:28;16.70;83.00
21518;DHT22;61765;45.794;24.150;2023-04-03T16:50:33;16.30;82.00
21518;DHT22;61765;45.794;24.150;2023-04-03T16:58:41;16.10;82.70
21518;DHT22;61765;45.794;24.150;2023-04-03T17:06:47;16.10;82.50
21518;DHT22;61765;45.794;24.150;2023-04-03T17:14:56;16.00;82.50
21518;DHT22;61765;45.794;24.150;2023-04-03T17:23:02;15.70;83.00
21518;DHT22;61765;45.794;24.150;2023-04-03T17:31:10;15.60;82.90
21518;DHT22;61765;45.794;24.150;2023-04-03T17:39:15;15.50;83.20
21518;DHT22;61765;45.794;24.150;2023-04-03T17:47:24;15.40;83.20
21518;DHT22;61765;45.794;24.150;2023-04-03T17:55:30;15.50;83.00
21518;DHT22;61765;45.794;24.150;2023-04-03T18:03:38;15.60;83.00
21518;DHT22;61765;45.794;24.150;2023-04-03T18:11:44;15.40;83.40
21518;DHT22;61765;45.794;24.150;2023-04-03T18:19:53;15.60;84.00
21518;DHT22;61765;45.794;24.150;2023-04-03T18:27:58;15.30;84.40
21518;DHT22;61765;45.794;24.150;2023-04-03T18:36:10;15.20;84.90
21518;DHT22;61765;45.794;24.150;2023-04-03T18:44:37;15.00;85.50
21518;DHT22;61765;45.794;24.150;2023-04-03T18:52:46;15.20;85.10
21518;DHT22;61765;45.794;24.150;2023-04-03T19:00:52;14.90;85.40
21518;DHT22;61765;45.794;24.150;2023-04-03T19:09:01;14.50;86.30
21518;DHT22;61765;45.794;24.150;2023-04-03T19:17:08;14.60;86.80
21518;DHT22;61765;45.794;24.150;2023-04-03T19:25:16;14.50;86.80
21518;DHT22;61765;45.794;24.150;2023-04-03T19:33:21;14.60;87.70
21518;DHT22;61765;45.794;24.150;2023-04-03T19:41:30;14.50;86.60
21518;DHT22;61765;45.794;24.150;2023-04-03T19:49:38;14.60;87.00
21518;DHT22;61765;45.794;24.150;2023-04-03T19:57:46;14.50;86.70
21518;DHT22;61765;45.794;24.150;2023-04-03T20:05:52;14.50;87.30
21518;DHT22;61765;45.794;24.150;2023-04-03T20:14:02;14.40;86.80
21518;DHT22;61765;45.794;24.150;2023-04-03T20:22:10;14.60;86.70
21518;DHT22;61765;45.794;24.150;2023-04-03T20:30:19;14.50;86.90
21518;DHT22;61765;45.794;24.150;2023-04-03T20:38:24;14.40;87.60
21518;DHT22;61765;45.794;24.150;2023-04-03T20:46:32;14.30;87.90
21518;DHT22;61765;45.794;24.150;2023-04-03T20:54:56;14.20;87.90
21518;DHT22;61765;45.794;24.150;2023-04-03T21:03:04;14.10;87.80
21518;DHT22;61765;45.794;24.150;2023-04-03T21:19:50;14.00;88.40
21518;DHT22;61765;45.794;24.150;2023-04-03T21:27:56;14.00;88.30
21518;DHT22;61765;45.794;24.150;2023-04-03T21:36:05;14.00;88.70
21518;DHT22;61765;45.794;24.150;2023-04-03T21:44:10;14.00;88.70
21518;DHT22;61765;45.794;24.150;2023-04-03T21:52:18;13.90;88.40
21518;DHT22;61765;45.794;24.150;2023-04-03T22:00:24;13.80;88.50
21518;DHT22;61765;45.794;24.150;2023-04-03T22:08:32;13.60;88.70
21518;DHT22;61765;45.794;24.150;2023-04-03T22:16:38;13.50;88.90
21518;DHT22;61765;45.794;24.150;2023-04-03T22:24:50;13.30;88.80
21518;DHT22;61765;45.794;24.150;2023-04-03T22:32:56;13.20;88.30
21518;DHT22;61765;45.794;24.150;2023-04-03T22:41:06;13.40;88.10
21518;DHT22;61765;45.794;24.150;2023-04-03T22:49:12;13.30;88.10
21518;DHT22;61765;45.794;24.150;2023-04-03T22:57:20;13.40;87.70
21518;DHT22;61765;45.794;24.150;2023-04-03T23:05:27;13.30;88.20
21518;DHT22;61765;45.794;24.150;2023-04-03T23:13:35;13.30;87.80
21518;DHT22;61765;45.794;24.150;2023-04-03T23:21:41;13.00;87.80
21518;DHT22;61765;45.794;24.150;2023-04-03T23:29:49;12.70;88.40
21518;DHT22;61765;45.794;24.150;2023-04-03T23:37:55;12.60;88.50
21518;DHT22;61765;45.794;24.150;2023-04-03T23:46:03;12.30;88.50
21518;DHT22;61765;45.794;24.150;2023-04-03T23:54:09;12.30;88.50
